地図

経路データ

SID SEASON NUMBER BASIN SUBBASIN NAME ISO_TIME NATURE LAT LON WMO_WIND WMO_PRES WMO_AGENCY TRACK_TYPE DIST2LAND LANDFALL IFLAG USA_AGENCY USA_ATCF_ID USA_LAT USA_LON USA_RECORD USA_STATUS USA_WIND USA_PRES USA_SSHS USA_R34_NE USA_R34_SE USA_R34_SW USA_R34_NW USA_R50_NE USA_R50_SE USA_R50_SW USA_R50_NW USA_R64_NE USA_R64_SE USA_R64_SW USA_R64_NW USA_POCI USA_ROCI USA_RMW USA_EYE TOKYO_LAT TOKYO_LON TOKYO_GRADE TOKYO_WIND TOKYO_PRES TOKYO_R50_DIR TOKYO_R50_LONG TOKYO_R50_SHORT TOKYO_R30_DIR TOKYO_R30_LONG TOKYO_R30_SHORT TOKYO_LAND CMA_LAT CMA_LON CMA_CAT CMA_WIND CMA_PRES HKO_LAT HKO_LON HKO_CAT HKO_WIND HKO_PRES NEWDELHI_LAT NEWDELHI_LON NEWDELHI_GRADE NEWDELHI_WIND NEWDELHI_PRES NEWDELHI_CI NEWDELHI_DP NEWDELHI_POCI REUNION_LAT REUNION_LON REUNION_TYPE REUNION_WIND REUNION_PRES REUNION_TNUM REUNION_CI REUNION_RMW REUNION_R34_NE REUNION_R34_SE REUNION_R34_SW REUNION_R34_NW REUNION_R50_NE REUNION_R50_SE REUNION_R50_SW REUNION_R50_NW REUNION_R64_NE REUNION_R64_SE REUNION_R64_SW REUNION_R64_NW BOM_LAT BOM_LON BOM_TYPE BOM_WIND BOM_PRES BOM_TNUM BOM_CI BOM_RMW BOM_R34_NE BOM_R34_SE BOM_R34_SW BOM_R34_NW BOM_R50_NE BOM_R50_SE BOM_R50_SW BOM_R50_NW BOM_R64_NE BOM_R64_SE BOM_R64_SW BOM_R64_NW BOM_ROCI BOM_POCI BOM_EYE BOM_POS_METHOD BOM_PRES_METHOD NADI_LAT NADI_LON NADI_CAT NADI_WIND NADI_PRES WELLINGTON_LAT WELLINGTON_LON WELLINGTON_WIND WELLINGTON_PRES DS824_LAT DS824_LON DS824_STAGE DS824_WIND DS824_PRES TD9636_LAT TD9636_LON TD9636_STAGE TD9636_WIND TD9636_PRES TD9635_LAT TD9635_LON TD9635_WIND TD9635_PRES TD9635_ROCI NEUMANN_LAT NEUMANN_LON NEUMANN_CLASS NEUMANN_WIND NEUMANN_PRES MLC_LAT MLC_LON MLC_CLASS MLC_WIND MLC_PRES USA_GUST BOM_GUST BOM_GUST_PER REUNION_GUST REUNION_GUST_PER USA_SEAHGT USA_SEARAD_NE USA_SEARAD_SE USA_SEARAD_SW USA_SEARAD_NW STORM_SPEED STORM_DIR
1912230N19130 1912 36 WP MM NOT_NAMED 1912-08-16 16:00:00 NR 18.8000 130.300 main 834 826 __________O___ -1 18.8000 130.300 7 3 302
1912230N19130 1912 36 WP MM NOT_NAMED 1912-08-16 18:00:00 NR 18.8549 130.205 main 834 813 __________P___ -1 18.8549 130.205 7 3 301
1912230N19130 1912 36 WP MM NOT_NAMED 1912-08-16 21:00:00 NR 18.9479 130.042 main 813 793 __________P___ -1 18.9479 130.042 7 4 301
1912230N19130 1912 36 WP MM NOT_NAMED 1912-08-17 00:00:00 NR 19.0684 129.825 main 793 763 __________P___ -1 19.0684 129.825 7 6 300
1912230N19130 1912 36 WP MM NOT_NAMED 1912-08-17 03:00:00 NR 19.2327 129.525 main 763 753 __________P___ -1 19.2327 129.525 7 7 300
1912230N19130 1912 36 WP MM NOT_NAMED 1912-08-17 04:00:00 NR 19.3000 129.400 main 753 724 __________O___ -1 19.3000 129.400 7 9 300
1912230N19130 1912 36 WP MM NOT_NAMED 1912-08-17 06:00:00 NR 19.4558 129.111 main 725 677 __________P___ -1 19.4558 129.111 7 10 300
1912230N19130 1912 36 WP MM NOT_NAMED 1912-08-17 09:00:00 NR 19.7393 128.601 main 677 627 __________P___ -1 19.7393 128.601 7 12 302
1912230N19130 1912 36 WP MM NOT_NAMED 1912-08-17 12:00:00 NR 20.0767 128.042 main 627 589 __________P___ -1 20.0767 128.042 7 13 304
1912230N19130 1912 36 WP MM NOT_NAMED 1912-08-17 15:00:00 NR 20.4619 127.480 main 593 578 __________P___ -1 20.4619 127.480 7 13 307
1912230N19130 1912 36 WP MM NOT_NAMED 1912-08-17 16:00:00 NR 20.6000 127.300 main 578 556 __________O___ -1 20.6000 127.300 7 13 310
1912230N19130 1912 36 WP MM NOT_NAMED 1912-08-17 18:00:00 NR 20.8851 126.947 main 556 539 __________P___ -1 20.8851 126.947 7 13 313
1912230N19130 1912 36 WP MM NOT_NAMED 1912-08-17 21:00:00 NR 21.3508 126.435 main 544 494 __________P___ -1 21.3508 126.435 7 13 317
1912230N19130 1912 36 WP MM NOT_NAMED 1912-08-18 00:00:00 NR 21.8423 125.975 main 494 439 __________P___ -1 21.8423 125.975 7 13 322
1912230N19130 1912 36 WP MM NOT_NAMED 1912-08-18 03:00:00 NR 22.3378 125.600 main 439 425 __________P___ -1 22.3378 125.600 7 12 326
1912230N19130 1912 36 WP MM NOT_NAMED 1912-08-18 04:00:00 NR 22.5000 125.500 main 425 394 __________O___ -1 22.5000 125.500 2 11 333
1912230N19130 1912 36 WP MM NOT_NAMED 1912-08-18 06:00:00 NR 22.8077 125.342 main 394 361 __________P___ -1 22.8077 125.342 2 10 340
1912230N19130 1912 36 WP MM NOT_NAMED 1912-08-18 09:00:00 NR 23.2636 125.194 main 361 336 __________P___ -1 23.2636 125.194 2 9 348
1912230N19130 1912 36 WP MM NOT_NAMED 1912-08-18 12:00:00 NR 23.7126 125.124 main 336 325 __________P___ -1 23.7126 125.124 2 9 355
1912230N19130 1912 36 WP MM NOT_NAMED 1912-08-18 15:00:00 NR 24.1544 125.102 main 325 322 __________P___ -1 24.1544 125.102 2 9 0
1912230N19130 1912 36 WP MM NOT_NAMED 1912-08-18 16:00:00 NR 24.3000 125.100 main 322 315 __________O___ -1 24.3000 125.100 2 9 0
1912230N19130 1912 36 WP MM NOT_NAMED 1912-08-18 18:00:00 NR 24.5886 125.097 main 315 312 __________P___ -1 24.5886 125.097 2 9 359
1912230N19130 1912 36 WP MM NOT_NAMED 1912-08-18 21:00:00 NR 25.0164 125.096 main 312 312 __________P___ -1 25.0164 125.096 2 9 358
1912230N19130 1912 36 WP MM NOT_NAMED 1912-08-19 00:00:00 NR 25.4395 125.097 main 314 316 __________P___ -1 25.4395 125.097 2 8 1
1912230N19130 1912 36 WP MM NOT_NAMED 1912-08-19 03:00:00 NR 25.8601 125.099 main 326 326 __________P___ -1 25.8601 125.099 2 8 2
1912230N19130 1912 36 WP MM NOT_NAMED 1912-08-19 04:00:00 NR 26.0000 125.100 main 330 __________O___ -1 26.0000 125.100 2 8 11

デジタル台風データ・検索

IBTrACS Databaseについて

本データベースは、米国NOAAが公開する1842年以降の世界の熱帯低気圧のベストトラックデータアーカイブInternational Best Track Archive for Climate Stewardship (IBTrACS)を、ウェブで閲覧しやすい形式に変換したものです。

最終更新日:2021-12-03